Time;durP1;ratioP1;P1;durP2;ratioP2;P2;SDS_P1;SDS_P2;PMS_P1;PMS_P2;Temp;Humidity;BMP_temperature;BMP_pressure;BME280_temperature;BME280_humidity;BME280_pressure;Samples;Min_cycle;Max_cycle;Signal;HPM_P1;HPM_P2
2021/07/02 00:00:45;;;;;;;3.37;1.70;;;;;;;12.95;99.77;92766.80;1782532;80;21533;-88
2021/07/02 00:03:11;;;;;;;4.58;1.50;;;;;;;12.84;99.58;92771.14;1823496;77;21073;-86
2021/07/02 00:05:38;;;;;;;5.62;2.35;;;;;;;12.68;100.00;92774.63;1805291;77;21002;-91
2021/07/02 00:08:10;;;;;;;2.65;1.70;;;;;;;12.58;100.00;92781.06;1813629;79;21062;-87
2021/07/02 00:10:39;;;;;;;5.90;3.20;;;;;;;12.53;100.00;92784.30;1815448;78;21127;-92
2021/07/02 00:13:07;;;;;;;4.20;3.75;;;;;;;12.56;100.00;92782.07;1819469;78;21053;-87
2021/07/02 00:15:34;;;;;;;5.05;3.00;;;;;;;12.61;100.00;92778.86;1823950;78;21057;-92
2021/07/02 00:18:03;;;;;;;6.42;2.85;;;;;;;12.67;100.00;92775.79;1812293;78;21547;-86
2021/07/02 00:20:34;;;;;;;3.98;2.58;;;;;;;12.68;100.00;92771.89;1773369;79;21049;-87
2021/07/02 00:23:01;;;;;;;4.97;2.15;;;;;;;12.75;100.00;92773.10;1769496;80;21065;-88
2021/07/02 00:25:29;;;;;;;5.05;2.05;;;;;;;12.79;100.00;92764.23;1778667;79;21057;-92
2021/07/02 00:28:02;;;;;;;3.52;2.95;;;;;;;12.84;100.00;92750.08;1777503;80;21763;-91
2021/07/02 00:30:29;;;;;;;3.65;3.35;;;;;;;12.92;100.00;92747.19;1810552;79;21174;-92
2021/07/02 00:32:57;;;;;;;3.67;2.62;;;;;;;12.97;100.00;92742.57;1817253;77;21603;-89
2021/07/02 00:35:25;;;;;;;3.12;2.05;;;;;;;13.06;100.00;92742.77;1814236;78;21599;-92
2021/07/02 00:37:55;;;;;;;6.90;1.70;;;;;;;13.12;100.00;92745.13;1840170;77;20986;-93
2021/07/02 00:40:22;;;;;;;3.52;1.70;;;;;;;13.16;100.00;92740.34;1841596;77;21176;-93
2021/07/02 00:45:25;;;;;;;3.50;2.83;;;;;;;13.13;100.00;92737.13;1834120;77;21136;-91
2021/07/02 00:47:54;;;;;;;6.85;2.50;;;;;;;13.08;100.00;92727.47;1836661;78;21908;-91
2021/07/02 00:50:21;;;;;;;3.20;2.00;;;;;;;13.10;100.00;92734.65;1836160;78;21033;-91
2021/07/02 00:52:47;;;;;;;6.00;2.05;;;;;;;13.16;100.00;92720.48;1812290;77;21025;-87
2021/07/02 00:55:14;;;;;;;3.98;1.77;;;;;;;13.23;100.00;92713.48;1842071;77;21026;-94
2021/07/02 00:57:42;;;;;;;1.65;1.55;;;;;;;13.28;99.61;92708.91;1842158;77;21002;-92
2021/07/02 01:00:09;;;;;;;2.92;1.60;;;;;;;13.22;98.51;92710.59;1784396;78;21104;-86
2021/07/02 01:02:36;;;;;;;2.17;1.40;;;;;;;13.08;98.41;92709.73;1836240;78;20999;-90
2021/07/02 01:05:04;;;;;;;1.90;1.75;;;;;;;12.92;98.76;92705.66;1838279;77;21046;-90
2021/07/02 01:07:32;;;;;;;2.67;2.08;;;;;;;12.76;99.53;92700.97;1839511;77;21742;-91
2021/07/02 01:10:00;;;;;;;2.98;2.00;;;;;;;12.64;100.00;92706.52;1840051;77;21085;-90
2021/07/02 01:12:28;;;;;;;1.72;1.62;;;;;;;12.52;100.00;92708.52;1811309;77;21745;-85
2021/07/02 01:14:55;;;;;;;5.53;1.80;;;;;;;12.40;100.00;92712.68;1804231;78;21025;-87
2021/07/02 01:17:23;;;;;;;3.20;1.75;;;;;;;12.31;100.00;92707.05;1803495;78;21555;-89
2021/07/02 01:19:52;;;;;;;1.95;1.75;;;;;;;12.26;100.00;92711.66;1826381;77;20994;-89
2021/07/02 01:22:28;;;;;;;3.55;1.70;;;;;;;12.22;100.00;92706.84;1839092;77;21093;-86
2021/07/02 01:24:59;;;;;;;6.10;1.72;;;;;;;12.19;100.00;92707.71;1793457;79;21754;-89
2021/07/02 01:27:27;;;;;;;2.67;1.75;;;;;;;12.19;100.00;92700.90;1792131;79;20983;-89
2021/07/02 01:29:56;;;;;;;4.55;2.22;;;;;;;12.23;100.00;92703.55;1783412;80;21058;-89
2021/07/02 01:32:23;;;;;;;2.67;2.00;;;;;;;12.26;100.00;92703.48;1789554;80;21049;-87
2021/07/02 01:34:51;;;;;;;5.00;2.37;;;;;;;12.29;100.00;92699.87;1801246;77;21026;-87
2021/07/02 01:37:19;;;;;;;;;;;;;;;;;;;;;
2021/07/02 01:39:46;;;;;;;7.17;2.37;;;;;;;12.32;100.00;92709.94;1806704;78;21053;-90
2021/07/02 01:42:13;;;;;;;3.90;1.80;;;;;;;12.31;100.00;92704.33;1758699;79;21514;-85
2021/07/02 01:44:42;;;;;;;3.42;1.98;;;;;;;12.34;100.00;92714.39;1737196;81;21066;-88
2021/07/02 01:47:16;;;;;;;2.47;2.20;;;;;;;12.40;100.00;92716.01;1760920;81;21066;-88
2021/07/02 01:49:45;;;;;;;1.72;1.62;;;;;;;12.51;100.00;92717.14;1712531;81;21243;-89
2021/07/02 01:52:11;;;;;;;5.50;2.25;;;;;;;12.55;100.00;92714.50;1781137;80;21635;-91
2021/07/02 01:54:43;;;;;;;3.58;2.12;;;;;;;12.57;100.00;92717.58;1772786;80;21108;-87
2021/07/02 01:57:19;;;;;;;4.42;2.45;;;;;;;12.55;100.00;92724.64;1722436;80;21081;-89
2021/07/02 01:59:47;;;;;;;3.70;3.08;;;;;;;12.51;100.00;92723.95;1751851;80;21054;-91
2021/07/02 02:02:15;;;;;;;5.80;2.62;;;;;;;12.52;100.00;92733.66;1766344;80;21756;-87
2021/07/02 02:04:44;;;;;;;3.75;2.90;;;;;;;12.58;100.00;92732.74;1753113;79;21759;-90
2021/07/02 02:07:11;;;;;;;2.60;2.40;;;;;;;12.64;100.00;92733.78;1786714;80;21034;-87
2021/07/02 02:09:38;;;;;;;3.17;1.98;;;;;;;12.72;100.00;92734.98;1700005;82;21019;-86
2021/07/02 02:12:07;;;;;;;2.08;1.82;;;;;;;12.69;100.00;92729.02;1747101;81;21572;-90
2021/07/02 02:14:37;;;;;;;3.05;2.30;;;;;;;12.66;100.00;92727.13;1770734;79;21030;-90
2021/07/02 02:17:08;;;;;;;3.08;2.47;;;;;;;12.65;100.00;92740.00;1740533;81;21351;-93
2021/07/02 02:19:37;;;;;;;4.45;2.20;;;;;;;12.68;100.00;92728.85;1722550;81;21045;-89
2021/07/02 02:22:04;;;;;;;2.05;1.90;;;;;;;12.75;100.00;92736.27;1746791;82;21093;-90
2021/07/02 02:24:35;;;;;;;7.25;2.33;;;;;;;12.81;100.00;92735.92;1791378;79;21127;-88
2021/07/02 02:27:23;;;;;;;;;;;;;;;;;;;;;
2021/07/02 02:29:38;;;;;;;;;;;;;;;12.93;100.00;92745.39;1738800;80;21062;-90
2021/07/02 02:32:06;;;;;;;1.85;1.75;;;;;;;12.96;100.00;92740.45;1751877;80;20443;-87
2021/07/02 02:34:33;;;;;;;3.60;1.98;;;;;;;12.98;100.00;92742.16;1777707;80;21073;-89
2021/07/02 02:36:59;;;;;;;4.65;3.00;;;;;;;12.96;100.00;92745.91;1750713;80;21204;-88
2021/07/02 02:39:27;;;;;;;3.95;3.40;;;;;;;12.95;100.00;92745.74;1777723;80;21161;-88
2021/07/02 02:41:55;;;;;;;5.58;3.85;;;;;;;12.99;100.00;92750.52;1777878;80;21659;-92
2021/07/02 02:44:22;;;;;;;6.97;3.98;;;;;;;13.07;100.00;92762.03;1819912;78;21031;-88
2021/07/02 02:46:49;;;;;;;6.75;4.12;;;;;;;13.11;100.00;92764.84;1791657;79;21035;-90
2021/07/02 02:49:16;;;;;;;7.08;4.37;;;;;;;13.15;100.00;92759.30;1801549;79;21572;-92
2021/07/02 02:51:43;;;;;;;7.00;5.40;;;;;;;13.17;100.00;92764.34;1796982;79;21343;-90
2021/07/02 02:54:11;;;;;;;5.47;3.98;;;;;;;13.17;100.00;92762.38;1801460;78;21053;-88
2021/07/02 02:57:03;;;;;;;8.50;4.40;;;;;;;13.22;100.00;92772.77;1817102;78;21179;-92
2021/07/02 02:59:06;;;;;;;6.25;4.45;;;;;;;13.24;100.00;92777.25;1814633;78;21220;-86
2021/07/02 03:01:33;;;;;;;5.72;3.47;;;;;;;13.26;100.00;92789.09;1821261;78;21151;-90
2021/07/02 03:04:00;;;;;;;4.70;3.90;;;;;;;13.29;100.00;92791.74;1821716;78;21105;-91
2021/07/02 03:06:26;;;;;;;4.50;3.85;;;;;;;13.34;100.00;92793.95;1817782;78;21042;-88
2021/07/02 03:08:53;;;;;;;4.65;3.42;;;;;;;13.36;100.00;92792.94;1805331;79;21045;-87
2021/07/02 03:11:22;;;;;;;5.35;3.72;;;;;;;13.43;100.00;92792.00;1799536;77;21026;-88
2021/07/02 03:13:49;;;;;;;3.80;3.37;;;;;;;13.49;100.00;92796.34;1840081;78;21069;-87
2021/07/02 03:16:19;;;;;;;3.25;2.95;;;;;;;13.54;100.00;92782.94;1791524;80;21279;-89
2021/07/02 03:18:49;;;;;;;7.72;3.15;;;;;;;13.55;100.00;92794.03;1821278;78;21033;-91
2021/07/02 03:21:16;;;;;;;4.22;3.17;;;;;;;13.54;100.00;92799.91;1817917;78;21041;-90
2021/07/02 03:23:43;;;;;;;4.70;3.15;;;;;;;13.53;100.00;92799.74;1817362;78;21441;-89
2021/07/02 03:26:16;;;;;;;4.25;2.87;;;;;;;13.52;100.00;92800.34;1799277;78;21061;-88
2021/07/02 03:28:44;;;;;;;3.20;2.90;;;;;;;13.52;100.00;92797.61;1822017;78;21133;-91
2021/07/02 03:31:11;;;;;;;4.17;3.30;;;;;;;13.57;100.00;92803.15;1852345;77;20986;-86
2021/07/02 03:33:39;;;;;;;8.70;3.17;;;;;;;13.59;100.00;92794.70;1780708;78;21101;-89
2021/07/02 03:36:10;;;;;;;4.20;3.72;;;;;;;13.67;100.00;92789.83;1798903;78;21041;-89
2021/07/02 03:38:37;;;;;;;3.70;3.40;;;;;;;13.77;100.00;92789.39;1819022;78;20998;-89
2021/07/02 03:41:04;;;;;;;4.37;3.40;;;;;;;13.83;100.00;92786.29;1830756;78;22186;-94
2021/07/02 03:43:33;;;;;;;6.83;4.75;;;;;;;13.85;100.00;92786.03;1727359;80;21269;-90
2021/07/02 03:46:02;;;;;;;6.40;5.00;;;;;;;13.85;100.00;92789.38;1815317;77;21041;-88
2021/07/02 03:48:31;;;;;;;5.50;4.05;;;;;;;13.85;100.00;92788.77;1802166;78;22366;-89
2021/07/02 03:50:59;;;;;;;6.15;3.80;;;;;;;13.89;100.00;92781.08;1798237;78;21042;-91
2021/07/02 03:53:29;;;;;;;4.60;3.80;;;;;;;13.87;100.00;92791.66;1820761;78;21078;-91
2021/07/02 03:55:59;;;;;;;8.28;4.05;;;;;;;13.88;100.00;92790.45;1776692;80;21057;-87
2021/07/02 03:58:28;;;;;;;5.92;3.60;;;;;;;13.91;100.00;92789.59;1795804;77;21002;-92
2021/07/02 04:00:55;;;;;;;5.28;4.70;;;;;;;13.93;100.00;92783.12;1844603;77;21089;-92
2021/07/02 04:03:24;;;;;;;7.22;4.33;;;;;;;13.92;100.00;92779.62;1844230;77;21045;-86
2021/07/02 04:05:53;;;;;;;3.75;3.45;;;;;;;13.94;100.00;92793.61;1820574;78;21134;-88
2021/07/02 04:08:20;;;;;;;7.30;3.58;;;;;;;13.91;100.00;92790.97;1796840;78;21060;-87
2021/07/02 04:10:49;;;;;;;4.58;3.17;;;;;;;13.82;100.00;92788.86;1786782;80;21032;-87
2021/07/02 04:13:22;;;;;;;3.22;2.92;;;;;;;13.70;100.00;92779.41;1820948;78;21276;-88
2021/07/02 04:15:49;;;;;;;6.25;3.60;;;;;;;13.65;100.00;92770.95;1785359;78;21119;-91
2021/07/02 04:18:18;;;;;;;7.28;3.83;;;;;;;13.65;100.00;92770.36;1772826;80;21120;-88
2021/07/02 04:20:45;;;;;;;5.17;4.60;;;;;;;13.75;100.00;92777.52;1763750;78;21731;-89
2021/07/02 04:23:12;;;;;;;5.97;5.00;;;;;;;13.84;100.00;92772.78;1818050;78;21726;-88
2021/07/02 04:25:39;;;;;;;7.08;3.50;;;;;;;13.91;100.00;92768.50;1746411;82;21136;-88
2021/07/02 04:28:05;;;;;;;6.10;3.72;;;;;;;13.98;100.00;92761.48;1792443;78;21101;-92
2021/07/02 04:30:32;;;;;;;8.63;5.08;;;;;;;14.03;100.00;92760.97;1807600;77;21152;-87
2021/07/02 04:33:00;;;;;;;7.03;3.83;;;;;;;14.09;100.00;92756.48;1807643;78;21037;-85
2021/07/02 04:35:31;;;;;;;5.15;4.12;;;;;;;14.13;100.00;92755.63;1781578;77;21097;-90
2021/07/02 04:37:57;;;;;;;4.45;4.05;;;;;;;14.21;100.00;92760.45;1844775;77;21101;-87
2021/07/02 04:40:23;;;;;;;3.70;3.40;;;;;;;14.27;100.00;92755.23;1843400;77;21054;-88
2021/07/02 04:42:52;;;;;;;3.45;3.12;;;;;;;14.28;100.00;92749.91;1845051;77;21037;-88
2021/07/02 04:45:18;;;;;;;3.87;3.05;;;;;;;14.30;100.00;92748.29;1855112;76;21048;-91
2021/07/02 04:47:45;;;;;;;4.67;3.10;;;;;;;14.31;100.00;92742.98;1824848;78;21034;-89
2021/07/02 04:50:12;;;;;;;3.75;3.17;;;;;;;14.32;100.00;92749.21;1811166;78;21042;-86
2021/07/02 04:52:41;;;;;;;3.50;3.10;;;;;;;14.33;100.00;92748.80;1827891;77;21080;-87
2021/07/02 04:55:09;;;;;;;4.28;3.65;;;;;;;14.34;100.00;92748.19;1796521;77;21082;-91
2021/07/02 04:57:36;;;;;;;4.72;3.02;;;;;;;14.36;100.00;92745.01;1775404;80;21100;-89
2021/07/02 05:00:05;;;;;;;3.00;2.80;;;;;;;14.38;100.00;92742.02;1764933;78;21117;-87
2021/07/02 05:02:34;;;;;;;7.30;3.77;;;;;;;14.39;99.57;92744.91;1835514;77;21023;-88
2021/07/02 05:05:03;;;;;;;6.95;4.62;;;;;;;14.40;99.35;92738.83;1799779;77;21475;-87
2021/07/02 05:07:35;;;;;;;9.20;6.60;;;;;;;14.41;99.57;92741.15;1837078;75;21046;-86
2021/07/02 05:10:03;;;;;;;8.80;5.40;;;;;;;14.40;99.51;92742.93;1784369;79;21049;-86
2021/07/02 05:12:31;;;;;;;7.92;5.10;;;;;;;14.41;99.57;92740.38;1774247;79;21079;-86
2021/07/02 05:14:58;;;;;;;10.30;5.40;;;;;;;14.43;99.80;92742.83;1773820;80;21066;-87
2021/07/02 05:17:27;;;;;;;5.78;4.85;;;;;;;14.45;100.00;92734.97;1770091;80;21113;-87
2021/07/02 05:19:58;;;;;;;6.97;4.87;;;;;;;14.47;100.00;92733.91;1782790;79;21062;-90
2021/07/02 05:22:25;;;;;;;4.83;4.30;;;;;;;14.52;99.69;92738.89;1756974;78;21043;-89
2021/07/02 05:24:52;;;;;;;6.20;4.70;;;;;;;14.57;99.54;92733.47;1732979;81;21085;-88
2021/07/02 05:27:22;;;;;;;5.25;4.75;;;;;;;14.64;99.31;92737.97;1755009;78;21030;-86
2021/07/02 05:29:50;;;;;;;6.08;4.08;;;;;;;14.71;98.93;92749.47;1775942;80;21053;-90
2021/07/02 05:32:16;;;;;;;5.35;4.58;;;;;;;14.78;98.73;92746.52;1751015;80;21287;-87
2021/07/02 05:34:43;;;;;;;7.05;4.50;;;;;;;14.83;98.82;92729.38;1773801;78;21110;-85
2021/07/02 05:37:10;;;;;;;4.12;3.55;;;;;;;14.86;99.11;92729.27;1776624;79;21062;-88
2021/07/02 05:39:36;;;;;;;4.62;3.47;;;;;;;14.90;98.79;92718.98;1769192;80;21429;-91
2021/07/02 05:42:08;;;;;;;5.78;4.42;;;;;;;14.94;98.31;92729.81;1775580;77;21117;-90
2021/07/02 05:44:49;;;;;;;3.92;3.52;;;;;;;14.99;98.16;92726.52;1802067;79;21481;-88
2021/07/02 05:47:15;;;;;;;4.58;4.08;;;;;;;15.01;97.80;92727.62;1723700;80;21047;-91
2021/07/02 05:49:57;;;;;;;3.58;3.30;;;;;;;15.09;97.49;92730.89;1781758;78;21226;-90
2021/07/02 05:52:37;;;;;;;4.42;3.15;;;;;;;15.14;97.08;92727.59;1792452;77;21124;-91
2021/07/02 05:55:08;;;;;;;6.50;3.20;;;;;;;15.20;96.41;92738.16;1760363;79;21673;-92
2021/07/02 05:57:35;;;;;;;3.55;3.25;;;;;;;15.24;95.87;92739.42;1751411;77;21535;-89
2021/07/02 06:00:06;;;;;;;4.70;3.83;;;;;;;15.27;95.02;92750.26;1818696;76;21052;-87
2021/07/02 06:02:33;;;;;;;4.40;3.37;;;;;;;15.26;94.75;92750.68;1828512;77;21057;-89
2021/07/02 06:05:03;;;;;;;3.27;2.98;;;;;;;15.24;94.83;92744.89;1786174;79;21072;-94
2021/07/02 06:07:46;;;;;;;5.20;4.28;;;;;;;15.25;95.31;92745.05;1815922;77;21120;-88
2021/07/02 06:10:12;;;;;;;4.33;3.92;;;;;;;15.25;95.62;92743.68;1765884;79;22202;-87
2021/07/02 06:12:39;;;;;;;5.25;3.40;;;;;;;15.27;96.26;92748.89;1783238;79;21741;-90
2021/07/02 06:16:52;;;;;;;5.12;3.70;;;;;;;15.36;96.16;92741.36;1874890;76;22795;-79
2021/07/02 06:19:18;;;;;;;4.42;4.03;;;;;;;15.38;96.10;92740.91;1836522;77;21026;-79
2021/07/02 06:21:45;;;;;;;3.98;3.58;;;;;;;15.46;95.73;92740.86;1836426;77;22226;-80
2021/07/02 06:24:12;;;;;;;4.87;3.70;;;;;;;15.53;95.30;92738.64;1843627;77;21618;-80
2021/07/02 06:26:38;;;;;;;5.42;3.75;;;;;;;15.58;95.14;92741.42;1828978;77;21036;-79
2021/07/02 06:29:05;;;;;;;6.42;3.65;;;;;;;15.61;94.98;92743.86;1803678;77;21025;-80
2021/07/02 06:31:31;;;;;;;3.40;3.10;;;;;;;15.61;94.89;92743.86;1839286;76;21213;-80
2021/07/02 06:34:03;;;;;;;3.30;3.10;;;;;;;15.63;94.25;92749.06;1821659;76;22162;-83
2021/07/02 06:36:29;;;;;;;5.10;3.00;;;;;;;15.65;93.99;92754.13;1816088;78;21440;-82
2021/07/02 06:38:56;;;;;;;4.03;3.65;;;;;;;15.66;93.09;92757.05;1815572;77;21034;-79
2021/07/02 06:41:22;;;;;;;3.65;3.35;;;;;;;15.68;92.69;92754.61;1824421;78;21045;-80
2021/07/02 06:43:49;;;;;;;3.12;2.92;;;;;;;15.72;92.77;92764.84;1780732;78;21027;-76
2021/07/02 06:46:16;;;;;;;3.35;3.05;;;;;;;15.73;92.62;92756.20;1771952;80;21129;-75
2021/07/02 06:48:43;;;;;;;10.90;4.10;;;;;;;15.76;92.06;92755.92;1794497;78;21050;-76
2021/07/02 06:51:09;;;;;;;6.00;3.37;;;;;;;15.75;91.89;92754.38;1836243;76;21004;-79
2021/07/02 06:53:37;;;;;;;6.08;4.08;;;;;;;15.76;91.91;92757.30;1820166;78;21576;-80
2021/07/02 06:56:08;;;;;;;6.47;3.75;;;;;;;15.77;92.04;92756.08;1793749;78;21108;-78
2021/07/02 06:58:35;;;;;;;6.90;3.80;;;;;;;15.81;92.03;92752.61;1813308;77;21288;-80
2021/07/02 07:01:04;;;;;;;6.45;3.58;;;;;;;15.90;92.01;92746.42;1846816;76;21035;-79
2021/07/02 07:04:04;;;;;;;3.72;3.42;;;;;;;15.96;91.01;92746.03;1831468;75;21152;-81
2021/07/02 07:06:33;;;;;;;4.12;3.25;;;;;;;16.00;91.38;92750.78;1792420;76;21036;-78
2021/07/02 07:09:01;;;;;;;4.42;3.67;;;;;;;16.10;91.74;92751.02;1807434;76;21098;-81
2021/07/02 07:11:30;;;;;;;3.62;3.33;;;;;;;16.16;90.85;92750.58;1764380;79;21101;-79
2021/07/02 07:14:06;;;;;;;6.15;3.47;;;;;;;16.20;90.60;92747.10;1783276;77;21067;-81
2021/07/02 07:16:34;;;;;;;;;;;;;;;16.25;89.99;92743.04;1798546;77;21051;-83
2021/07/02 07:19:47;;;;;;;5.60;3.67;;;;;;;16.26;89.52;92742.58;1794944;77;20303;-81
2021/07/02 07:22:20;;;;;;;3.83;3.30;;;;;;;16.29;89.34;92742.91;1781292;77;21061;-83
2021/07/02 07:24:51;;;;;;;3.37;3.08;;;;;;;16.34;89.12;92738.97;1807054;77;21276;-84
2021/07/02 07:27:18;;;;;;;3.08;2.87;;;;;;;16.40;88.68;92746.80;1807407;78;20994;-82
2021/07/02 07:29:45;;;;;;;3.77;3.47;;;;;;;16.45;88.16;92744.07;1849232;76;21105;-82
2021/07/02 07:32:14;;;;;;;3.55;3.10;;;;;;;16.47;87.47;92747.91;1829843;77;20994;-81
2021/07/02 07:37:18;;;;;;;3.65;3.27;;;;;;;16.54;86.50;92749.59;1848025;76;21677;-80
2021/07/02 07:39:42;;;;;;;4.15;3.25;;;;;;;16.58;86.12;92746.72;1812855;77;21058;-79
2021/07/02 07:45:26;;;;;;;3.65;3.20;;;;;;;16.64;85.62;92747.06;1787586;77;21097;-79
2021/07/02 07:47:53;;;;;;;3.35;3.00;;;;;;;16.70;85.89;92745.28;1818922;75;21060;-83
2021/07/02 07:50:33;;;;;;;;;;;;;;;;;;;;;
2021/07/02 07:52:56;;;;;;;3.92;3.50;;;;;;;16.82;85.75;92752.53;1756858;79;21399;-79
2021/07/02 07:55:29;;;;;;;3.70;3.45;;;;;;;16.89;85.67;92752.27;1692005;80;21470;-84
2021/07/02 07:57:58;;;;;;;3.33;3.08;;;;;;;16.96;84.94;92753.33;1820880;76;21067;-84
2021/07/02 08:00:28;;;;;;;3.62;2.72;;;;;;;17.03;83.52;92751.69;1815538;76;21119;-80
2021/07/02 08:02:59;;;;;;;4.10;3.08;;;;;;;17.05;82.24;92741.02;1810676;77;21350;-81
2021/07/02 08:05:26;;;;;;;3.55;3.08;;;;;;;17.06;82.24;92737.66;1823055;77;21047;-80
2021/07/02 08:07:53;;;;;;;3.00;2.80;;;;;;;17.08;82.35;92740.13;1779349;79;21080;-80
2021/07/02 08:10:21;;;;;;;5.40;4.90;;;;;;;17.12;81.72;92734.49;1722080;81;21065;-78
2021/07/02 08:12:49;;;;;;;3.35;3.05;;;;;;;17.21;82.04;92737.25;1788723;77;21065;-81
2021/07/02 08:15:18;;;;;;;4.22;3.10;;;;;;;17.33;83.23;92734.23;1795838;78;21319;-81
2021/07/02 08:17:45;;;;;;;3.65;2.70;;;;;;;17.46;81.72;92725.27;1796409;78;21066;-81
2021/07/02 08:20:14;;;;;;;2.92;2.72;;;;;;;17.59;79.93;92724.50;1813295;77;21451;-81
2021/07/02 08:22:41;;;;;;;3.25;2.60;;;;;;;17.73;79.94;92725.28;1776611;79;21118;-80
2021/07/02 08:25:08;;;;;;;2.85;2.65;;;;;;;17.89;78.35;92722.87;1796366;79;21014;-80
2021/07/02 08:29:22;;;;;;;2.98;2.70;;;;;;;18.03;77.06;92724.87;1776351;79;21154;-83
2021/07/02 08:30:05;;;;;;;4.45;3.27;;;;;;;18.13;76.56;92724.41;1741984;79;21082;-82
2021/07/02 08:32:31;;;;;;;3.02;2.83;;;;;;;18.24;76.50;92719.81;1800289;77;21035;-78
2021/07/02 08:34:58;;;;;;;7.10;3.20;;;;;;;18.28;75.94;92720.42;1816165;78;21100;-81
2021/07/02 08:37:27;;;;;;;3.70;3.00;;;;;;;18.36;75.73;92718.88;1821465;76;21082;-83
2021/07/02 08:39:53;;;;;;;2.70;2.50;;;;;;;18.43;75.25;92719.93;1824095;76;22182;-81
2021/07/02 08:42:20;;;;;;;2.92;2.65;;;;;;;18.47;74.25;92717.02;1807674;77;21046;-81
2021/07/02 08:44:47;;;;;;;6.72;4.28;;;;;;;18.49;72.69;92717.30;1804655;78;21139;-80
2021/07/02 08:47:14;;;;;;;2.80;2.60;;;;;;;18.49;71.85;92711.04;1718521;79;21646;-81
2021/07/02 08:49:43;;;;;;;6.53;3.22;;;;;;;18.47;71.67;92716.23;1778079;79;21639;-80
2021/07/02 08:52:10;;;;;;;2.70;2.50;;;;;;;18.47;72.04;92717.61;1791140;79;21453;-77
2021/07/02 08:54:38;;;;;;;2.72;2.52;;;;;;;18.44;71.36;92719.31;1787361;78;21060;-79
2021/07/02 08:57:12;;;;;;;3.22;2.50;;;;;;;18.40;69.84;92720.09;1732620;81;21108;-79
2021/07/02 08:59:43;;;;;;;3.02;2.17;;;;;;;18.36;69.65;92719.48;1748866;80;20959;-80
2021/07/02 09:02:12;;;;;;;2.50;2.30;;;;;;;18.32;70.01;92712.01;1746206;80;21109;-81
2021/07/02 09:04:39;;;;;;;2.35;2.25;;;;;;;18.28;70.28;92713.54;1771305;80;21867;-79
2021/07/02 09:07:09;;;;;;;2.33;2.20;;;;;;;18.25;70.42;92710.33;1798353;79;21038;-81
2021/07/02 09:09:57;;;;;;;2.30;2.20;;;;;;;18.26;70.09;92704.97;1811923;77;21727;-79
2021/07/02 09:12:32;;;;;;;2.65;2.45;;;;;;;18.29;69.05;92706.05;1790146;79;21394;-78
2021/07/02 09:15:09;;;;;;;2.65;2.50;;;;;;;18.35;68.61;92707.69;1776354;79;21073;-80
2021/07/02 09:17:52;;;;;;;2.77;2.58;;;;;;;18.44;68.25;92700.05;1762231;81;21184;-80
2021/07/02 09:20:24;;;;;;;4.45;4.05;;;;;;;18.53;67.89;92695.88;1755453;79;21074;-79
2021/07/02 09:23:01;;;;;;;2.80;2.50;;;;;;;18.61;67.72;92685.30;1792247;79;21062;-78
2021/07/02 09:25:49;;;;;;;3.62;3.33;;;;;;;18.73;66.74;92688.53;1777598;79;21136;-78
2021/07/02 09:28:18;;;;;;;2.95;2.72;;;;;;;18.84;66.48;92679.15;1731063;80;21008;-81
2021/07/02 09:30:52;;;;;;;4.97;4.40;;;;;;;18.95;65.71;92677.24;1770776;79;21421;-80
2021/07/02 09:33:20;;;;;;;3.98;3.50;;;;;;;19.05;66.43;92668.33;1782890;79;21346;-82
2021/07/02 09:36:00;;;;;;;3.40;3.10;;;;;;;19.16;66.02;92677.59;1777959;79;21493;-81
2021/07/02 09:38:39;;;;;;;3.00;2.80;;;;;;;19.25;66.92;92675.40;1797727;79;21529;-77
2021/07/02 09:41:08;;;;;;;2.85;2.22;;;;;;;19.37;66.00;92674.42;1768667;80;21043;-79
2021/07/02 09:43:37;;;;;;;3.37;2.60;;;;;;;19.44;64.97;92672.53;1793398;79;21112;-80
2021/07/02 09:46:07;;;;;;;3.45;3.00;;;;;;;19.47;65.25;92674.36;1766237;78;21458;-79
2021/07/02 09:48:44;;;;;;;2.77;2.60;;;;;;;19.49;63.66;92667.77;1724233;81;21124;-78
2021/07/02 09:51:13;;;;;;;2.90;2.70;;;;;;;19.50;66.51;92664.53;1745485;79;21048;-79
2021/07/02 09:53:40;;;;;;;2.72;2.52;;;;;;;19.62;66.82;92658.65;1795542;79;21030;-78
2021/07/02 09:56:19;;;;;;;2.92;2.60;;;;;;;19.73;66.67;92660.87;1762322;77;21046;-81
2021/07/02 09:58:46;;;;;;;2.87;2.67;;;;;;;19.86;67.93;92660.02;1790228;77;21077;-77
2021/07/02 10:01:27;;;;;;;3.17;2.92;;;;;;;19.97;64.35;92662.98;1773154;79;21593;-81
2021/07/02 10:03:54;;;;;;;3.60;3.40;;;;;;;19.96;64.08;92657.30;1801376;79;21414;-80
2021/07/02 10:06:27;;;;;;;3.50;3.20;;;;;;;19.93;65.54;92660.23;1811976;77;21053;-83
2021/07/02 10:09:00;;;;;;;4.20;3.80;;;;;;;19.84;64.66;92652.19;1799538;78;21284;-81
2021/07/02 10:11:26;;;;;;;3.87;3.58;;;;;;;19.83;67.21;92656.81;1781131;80;21094;-81
2021/07/02 10:13:52;;;;;;;3.72;3.02;;;;;;;19.85;64.95;92646.81;1770605;80;21222;-81
2021/07/02 10:16:22;;;;;;;6.08;4.00;;;;;;;19.84;65.42;92647.30;1723423;80;21040;-81
2021/07/02 10:18:54;;;;;;;4.58;3.60;;;;;;;19.81;64.51;92646.23;1738703;79;21018;-82
2021/07/02 10:21:24;;;;;;;3.52;3.33;;;;;;;19.79;64.28;92650.09;1788615;77;21087;-82
2021/07/02 10:23:58;;;;;;;3.92;3.55;;;;;;;19.77;64.08;92649.80;1812407;78;21006;-82
2021/07/02 10:26:26;;;;;;;3.77;3.22;;;;;;;19.79;65.50;92643.20;1776990;79;21054;-82
2021/07/02 10:28:53;;;;;;;3.60;2.90;;;;;;;19.89;64.02;92643.88;1786460;78;21013;-83
2021/07/02 10:31:21;;;;;;;3.02;2.83;;;;;;;19.96;63.21;92640.75;1721855;80;21074;-82
2021/07/02 10:33:54;;;;;;;7.50;3.37;;;;;;;20.03;64.70;92632.72;1727808;79;22116;-80
2021/07/02 10:36:21;;;;;;;3.50;3.20;;;;;;;20.12;64.64;92629.27;1776652;79;21039;-83
2021/07/02 10:38:50;;;;;;;5.22;3.45;;;;;;;20.17;65.13;92627.83;1759207;79;21686;-80
2021/07/02 10:41:30;;;;;;;3.25;3.00;;;;;;;20.16;65.29;92630.45;1790440;79;21073;-83
2021/07/02 10:44:11;;;;;;;3.75;2.98;;;;;;;20.12;63.78;92629.27;1751208;80;21549;-79
2021/07/02 10:46:51;;;;;;;3.58;3.27;;;;;;;20.04;64.96;92629.47;1736593;80;21121;-81
2021/07/02 10:49:18;;;;;;;4.72;2.90;;;;;;;19.96;64.81;92625.57;1775686;79;21462;-80
2021/07/02 10:51:49;;;;;;;3.50;3.25;;;;;;;19.81;63.93;92630.30;1782384;79;21043;-80
2021/07/02 10:54:23;;;;;;;3.30;2.87;;;;;;;19.69;65.16;92624.44;1751275;80;21034;-81
2021/07/02 10:57:00;;;;;;;7.47;5.85;;;;;;;19.60;64.71;92628.02;1770246;79;21549;-83
2021/07/02 10:59:46;;;;;;;3.70;3.50;;;;;;;19.59;66.31;92629.98;1771590;79;21802;-80
2021/07/02 11:02:17;;;;;;;3.25;3.05;;;;;;;19.64;66.45;92625.24;1792518;79;21081;-80
2021/07/02 11:04:50;;;;;;;3.05;2.85;;;;;;;19.64;64.64;92632.76;1794610;79;21056;-80
2021/07/02 11:07:25;;;;;;;3.87;2.72;;;;;;;19.56;64.81;92624.68;1779311;79;21138;-81
2021/07/02 11:10:00;;;;;;;4.05;3.65;;;;;;;19.50;65.12;92623.17;1807653;78;21092;-78
2021/07/02 11:12:47;;;;;;;3.70;3.37;;;;;;;19.51;65.52;92618.42;1786202;77;21134;-81
2021/07/02 11:15:18;;;;;;;4.78;4.47;;;;;;;19.55;66.26;92612.86;1803428;78;21086;-83
2021/07/02 11:17:52;;;;;;;3.72;3.47;;;;;;;19.58;65.92;92609.79;1787665;78;21112;-81
2021/07/02 11:20:24;;;;;;;4.00;3.70;;;;;;;19.61;65.76;92607.47;1803508;77;21101;-80
2021/07/02 11:23:16;;;;;;;6.53;5.65;;;;;;;19.59;66.29;92609.30;1804203;77;21085;-81
2021/07/02 11:26:00;;;;;;;3.98;3.67;;;;;;;19.58;65.87;92604.27;1776948;79;21784;-83
2021/07/02 11:28:42;;;;;;;4.20;3.90;;;;;;;19.56;66.22;92602.00;1796507;77;21088;-81
2021/07/02 11:31:11;;;;;;;5.28;3.92;;;;;;;19.54;67.16;92596.80;1816699;77;21453;-80
2021/07/02 11:33:38;;;;;;;4.00;3.58;;;;;;;19.53;66.66;92602.18;1794948;78;21072;-82
2021/07/02 11:36:08;;;;;;;3.65;3.35;;;;;;;19.54;66.89;92605.08;1800364;78;21684;-81
2021/07/02 11:38:47;;;;;;;3.33;3.05;;;;;;;19.56;65.44;92608.14;1797544;79;21770;-82
2021/07/02 11:41:23;;;;;;;3.83;3.52;;;;;;;19.58;64.48;92599.52;1768484;79;21094;-79
2021/07/02 11:43:49;;;;;;;4.53;3.40;;;;;;;19.56;63.19;92604.76;1794357;79;21091;-79
2021/07/02 11:46:21;;;;;;;3.67;3.37;;;;;;;19.54;63.91;92603.08;1790315;78;21983;-83
2021/07/02 11:48:52;;;;;;;4.53;4.12;;;;;;;19.55;65.70;92609.34;1797251;78;21255;-80
2021/07/02 11:51:30;;;;;;;6.10;4.33;;;;;;;19.57;66.21;92606.27;1795635;77;21882;-82
2021/07/02 11:54:04;;;;;;;5.12;4.22;;;;;;;19.58;67.13;92605.66;1778819;79;21022;-83
2021/07/02 11:56:33;;;;;;;7.20;4.25;;;;;;;19.52;66.91;92605.56;1825931;77;21067;-82